createdAt,value
2018-12-07T00:01:23.111Z,12.37
2018-12-07T00:03:50.543Z,10.90
2018-12-07T00:06:18.032Z,9.30
2018-12-07T00:08:45.602Z,14.60
2018-12-07T00:11:13.008Z,11.07
2018-12-07T00:13:40.420Z,10.13
2018-12-07T00:16:07.809Z,11.60
2018-12-07T00:18:35.247Z,12.87
2018-12-07T00:21:02.784Z,10.47
2018-12-07T00:23:30.195Z,10.27
2018-12-07T00:25:57.602Z,6.63
2018-12-07T00:28:25.001Z,7.93
2018-12-07T00:30:52.392Z,9.93
2018-12-07T00:33:19.775Z,8.73
2018-12-07T00:35:47.299Z,9.97
2018-12-07T00:38:14.724Z,17.47
2018-12-07T00:40:42.260Z,9.40
2018-12-07T00:43:09.646Z,7.93
2018-12-07T00:45:37.088Z,9.90
2018-12-07T00:48:04.515Z,10.70
2018-12-07T00:50:31.912Z,9.27
2018-12-07T00:52:59.314Z,7.90
2018-12-07T00:55:34.498Z,11.07
2018-12-07T00:58:01.942Z,14.23
2018-12-07T01:00:29.361Z,8.17
2018-12-07T01:02:56.776Z,8.03
2018-12-07T01:05:24.182Z,7.27
2018-12-07T01:07:51.628Z,9.87
2018-12-07T01:10:19.148Z,7.97
2018-12-07T01:12:46.523Z,8.00
2018-12-07T01:15:13.928Z,5.37
2018-12-07T01:17:41.338Z,5.63
2018-12-07T01:20:08.723Z,8.33
2018-12-07T01:22:36.148Z,8.27
2018-12-07T01:25:03.929Z,5.17
2018-12-07T01:27:31.466Z,5.43
2018-12-07T01:29:58.855Z,6.27
2018-12-07T01:32:26.249Z,9.33
2018-12-07T01:34:53.668Z,9.37
2018-12-07T01:37:21.053Z,7.30
2018-12-07T01:39:48.465Z,7.80
2018-12-07T01:42:15.851Z,8.67
2018-12-07T01:44:43.265Z,4.47
2018-12-07T01:47:10.703Z,8.63
2018-12-07T01:49:38.112Z,8.23
2018-12-07T01:52:05.512Z,4.57
2018-12-07T01:54:32.924Z,5.30
2018-12-07T01:57:00.307Z,6.33
2018-12-07T01:59:27.702Z,7.27
2018-12-07T02:01:55.089Z,10.40
2018-12-07T02:04:22.473Z,6.70
2018-12-07T02:06:49.950Z,6.67
2018-12-07T02:09:17.376Z,9.10
2018-12-07T02:11:44.769Z,7.77
2018-12-07T02:14:12.269Z,8.97
2018-12-07T02:16:39.763Z,7.57
2018-12-07T02:19:07.150Z,6.23
2018-12-07T02:21:34.562Z,8.63
2018-12-07T02:24:01.975Z,5.53
2018-12-07T02:26:29.357Z,4.97
2018-12-07T02:28:56.835Z,6.77
2018-12-07T02:31:24.217Z,9.67
2018-12-07T02:33:51.623Z,7.30
2018-12-07T02:36:19.027Z,7.37
2018-12-07T02:38:46.426Z,6.27
2018-12-07T02:41:13.901Z,6.43
2018-12-07T02:43:41.311Z,5.07
2018-12-07T02:46:08.674Z,3.97
2018-12-07T02:48:36.077Z,7.77
2018-12-07T02:51:03.623Z,5.33
2018-12-07T02:53:31.018Z,5.83
2018-12-07T02:55:58.399Z,6.00
2018-12-07T02:58:25.834Z,5.77
2018-12-07T03:00:53.235Z,2.10
2018-12-07T03:03:20.643Z,5.77
2018-12-07T03:05:48.067Z,4.33
2018-12-07T03:08:15.458Z,5.40
2018-12-07T03:10:42.899Z,4.40
2018-12-07T03:13:10.352Z,3.47
2018-12-07T03:15:38.727Z,3.53
2018-12-07T03:18:10.689Z,6.47
2018-12-07T03:20:38.094Z,5.67
2018-12-07T03:23:05.530Z,5.93
2018-12-07T03:25:32.936Z,2.83
2018-12-07T03:28:30.972Z,3.00
2018-12-07T03:30:58.405Z,2.50
2018-12-07T03:33:25.911Z,4.20
2018-12-07T03:35:53.313Z,3.40
2018-12-07T03:38:20.725Z,3.87
2018-12-07T03:40:48.122Z,2.10
2018-12-07T03:43:15.567Z,3.03
2018-12-07T03:45:42.979Z,2.63
2018-12-07T03:48:10.355Z,1.70
2018-12-07T03:50:37.794Z,1.63
2018-12-07T03:53:05.295Z,2.70
2018-12-07T03:55:32.679Z,1.43
2018-12-07T03:58:00.111Z,3.13
2018-12-07T04:00:27.562Z,2.97
2018-12-07T04:02:54.935Z,2.87
2018-12-07T04:05:22.320Z,1.30
2018-12-07T04:07:49.837Z,2.83
2018-12-07T04:10:17.224Z,3.57
2018-12-07T04:12:44.607Z,2.10
2018-12-07T04:15:12.289Z,3.23
2018-12-07T04:17:39.921Z,3.70
2018-12-07T04:20:07.434Z,3.93
2018-12-07T04:22:34.839Z,2.80
2018-12-07T04:25:02.554Z,3.57
2018-12-07T04:27:29.966Z,2.40
2018-12-07T04:30:03.063Z,2.37
2018-12-07T04:32:30.496Z,3.23
2018-12-07T04:34:58.078Z,2.23
2018-12-07T04:37:25.495Z,2.13
2018-12-07T04:39:52.903Z,2.30
2018-12-07T04:42:20.346Z,3.80
2018-12-07T04:44:47.745Z,4.20
2018-12-07T04:47:15.192Z,3.20
2018-12-07T04:49:42.614Z,3.00
2018-12-07T04:52:10.011Z,2.73
2018-12-07T04:54:37.420Z,6.13
2018-12-07T04:57:04.827Z,4.30
2018-12-07T04:59:32.224Z,6.57
2018-12-07T05:01:59.676Z,5.87
2018-12-07T05:04:27.091Z,4.63
2018-12-07T05:06:54.486Z,4.00
2018-12-07T05:09:21.892Z,2.80
2018-12-07T05:11:49.304Z,4.03
2018-12-07T05:14:16.816Z,4.73
2018-12-07T05:16:44.257Z,5.90
2018-12-07T05:19:11.677Z,4.43
2018-12-07T05:21:39.207Z,6.00
2018-12-07T05:24:06.635Z,5.60
2018-12-07T05:26:34.119Z,3.53
2018-12-07T05:29:01.530Z,4.20
2018-12-07T05:31:28.972Z,5.20
2018-12-07T05:33:56.390Z,5.13
2018-12-07T05:36:24.043Z,3.73
2018-12-07T05:38:51.499Z,5.60
2018-12-07T05:41:18.930Z,6.27
2018-12-07T05:43:53.761Z,6.47
2018-12-07T05:46:21.213Z,6.77
2018-12-07T05:48:48.742Z,5.03
2018-12-07T05:51:16.166Z,4.83
2018-12-07T05:53:43.585Z,3.87
2018-12-07T05:59:09.235Z,6.07
2018-12-07T06:01:36.621Z,10.27
2018-12-07T06:04:04.042Z,10.20
2018-12-07T06:06:31.523Z,5.40
2018-12-07T06:08:58.912Z,6.07
2018-12-07T06:11:26.370Z,5.77
2018-12-07T06:13:54.147Z,8.10
2018-12-07T06:16:21.604Z,13.47
2018-12-07T06:18:49.019Z,9.00
2018-12-07T06:21:16.403Z,10.03
2018-12-07T06:23:43.790Z,7.10
2018-12-07T06:26:11.198Z,8.33
2018-12-07T06:28:38.699Z,4.43
2018-12-07T06:31:06.147Z,8.53
2018-12-07T06:33:33.571Z,7.87
2018-12-07T06:36:00.966Z,7.73
2018-12-07T06:38:28.387Z,8.47
2018-12-07T06:40:55.762Z,10.70
2018-12-07T06:43:23.154Z,9.07
2018-12-07T06:45:50.565Z,6.67
2018-12-07T06:48:17.979Z,7.53
2018-12-07T06:50:45.383Z,4.83
2018-12-07T06:55:45.421Z,7.27
2018-12-07T06:58:12.876Z,7.07
2018-12-07T07:00:40.381Z,4.47
2018-12-07T07:03:07.895Z,7.73
2018-12-07T07:05:35.312Z,4.73
2018-12-07T07:08:02.731Z,4.23
2018-12-07T07:10:30.234Z,2.30
2018-12-07T07:12:57.668Z,3.90
2018-12-07T07:15:25.050Z,5.83
2018-12-07T07:17:52.451Z,7.60
2018-12-07T07:20:19.827Z,4.37
2018-12-07T07:22:47.200Z,6.30
2018-12-07T07:25:14.608Z,5.07
2018-12-07T07:27:42.013Z,4.80
2018-12-07T07:30:09.565Z,6.07
2018-12-07T07:32:36.984Z,5.70
2018-12-07T07:35:04.890Z,6.93
2018-12-07T07:37:32.323Z,3.37
2018-12-07T07:39:59.754Z,4.40
2018-12-07T07:42:27.153Z,4.77
2018-12-07T07:44:54.534Z,3.00
2018-12-07T07:47:21.914Z,5.43
2018-12-07T07:49:49.347Z,3.50
2018-12-07T07:52:16.726Z,5.50
2018-12-07T07:54:44.110Z,5.30
2018-12-07T07:57:11.520Z,3.70
2018-12-07T07:59:38.994Z,3.97
2018-12-07T08:02:06.429Z,5.93
2018-12-07T08:04:33.829Z,3.37
2018-12-07T08:07:01.247Z,3.93
2018-12-07T08:09:28.639Z,6.17
2018-12-07T08:11:56.058Z,4.60
2018-12-07T08:14:23.499Z,4.80
2018-12-07T08:16:50.886Z,3.00
2018-12-07T08:19:18.313Z,4.20
2018-12-07T08:21:45.744Z,3.43
2018-12-07T08:24:13.240Z,4.97
2018-12-07T08:26:40.725Z,4.00
2018-12-07T08:29:08.147Z,6.47
2018-12-07T08:31:35.879Z,4.30
2018-12-07T08:34:03.323Z,5.37
2018-12-07T08:36:30.722Z,4.83
2018-12-07T08:38:58.150Z,6.90
2018-12-07T08:41:25.571Z,4.77
2018-12-07T08:43:52.966Z,4.93
2018-12-07T08:46:20.411Z,6.27
2018-12-07T08:48:47.837Z,3.97
2018-12-07T08:51:15.239Z,5.07
2018-12-07T08:53:42.647Z,6.77
2018-12-07T08:56:10.204Z,5.30
2018-12-07T08:58:37.584Z,4.13
2018-12-07T09:01:05.102Z,3.90
2018-12-07T09:03:32.530Z,4.67
2018-12-07T09:05:59.934Z,5.30
2018-12-07T09:08:27.384Z,3.10
2018-12-07T09:10:54.942Z,3.37
2018-12-07T09:13:22.409Z,3.20
2018-12-07T09:15:50.125Z,6.47
2018-12-07T09:18:17.542Z,5.40
2018-12-07T09:20:44.912Z,3.50
2018-12-07T09:23:12.325Z,5.07
2018-12-07T09:25:39.780Z,2.87
2018-12-07T09:28:07.266Z,2.80
2018-12-07T09:30:34.685Z,2.30
2018-12-07T09:33:02.084Z,1.33
2018-12-07T09:35:29.477Z,1.30
2018-12-07T09:37:56.911Z,1.83
2018-12-07T09:40:24.322Z,1.17
2018-12-07T09:42:51.720Z,1.27
2018-12-07T09:45:19.135Z,1.23
2018-12-07T09:47:46.568Z,1.33
2018-12-07T09:50:13.986Z,1.50
2018-12-07T09:52:41.406Z,0.93
2018-12-07T09:55:08.839Z,1.10
2018-12-07T09:57:36.254Z,1.63
2018-12-07T10:00:04.188Z,0.70
2018-12-07T10:02:31.631Z,0.83
2018-12-07T10:05:05.559Z,1.70
2018-12-07T10:07:32.994Z,0.93
2018-12-07T10:10:00.413Z,1.20
2018-12-07T10:12:27.812Z,2.33
2018-12-07T10:14:55.246Z,1.20
2018-12-07T10:17:22.719Z,2.00
2018-12-07T10:19:50.240Z,0.90
2018-12-07T10:22:17.655Z,0.60
2018-12-07T10:24:45.071Z,0.93
2018-12-07T10:27:12.492Z,0.87
2018-12-07T10:29:40.098Z,1.10
2018-12-07T10:32:07.508Z,1.67
2018-12-07T10:34:34.919Z,1.93
2018-12-07T10:37:02.302Z,0.97
2018-12-07T10:39:29.701Z,1.63
2018-12-07T10:41:57.151Z,1.80
2018-12-07T10:44:24.567Z,2.47
2018-12-07T10:46:51.963Z,0.90
2018-12-07T10:49:19.382Z,1.00
2018-12-07T10:51:46.807Z,0.87
2018-12-07T10:54:14.307Z,0.70
2018-12-07T10:56:41.725Z,3.00
2018-12-07T10:59:09.144Z,0.60
2018-12-07T11:01:42.134Z,0.70
2018-12-07T11:04:15.015Z,0.67
2018-12-07T11:06:48.071Z,1.23
2018-12-07T11:09:21.017Z,0.53
2018-12-07T11:11:54.112Z,0.67
2018-12-07T11:14:27.224Z,0.70
2018-12-07T11:17:00.384Z,0.80
2018-12-07T11:19:33.466Z,0.57
2018-12-07T11:22:06.376Z,0.27
2018-12-07T11:24:39.557Z,0.67
2018-12-07T11:27:13.389Z,3.57
2018-12-07T11:29:46.299Z,0.40
2018-12-07T11:32:16.352Z,0.40
2018-12-07T11:34:46.930Z,0.30
2018-12-07T11:37:14.413Z,1.00
2018-12-07T11:39:41.882Z,0.50
2018-12-07T11:42:09.344Z,2.53
2018-12-07T11:44:36.814Z,0.80
2018-12-07T11:47:04.344Z,0.40
2018-12-07T11:49:33.808Z,0.70
2018-12-07T11:52:01.223Z,0.30
2018-12-07T11:54:28.617Z,2.27
2018-12-07T11:56:56.038Z,1.40
2018-12-07T11:59:23.442Z,0.30
2018-12-07T12:01:50.868Z,0.40
2018-12-07T12:04:18.341Z,0.33
2018-12-07T12:06:45.759Z,0.27
2018-12-07T12:09:13.326Z,0.27
2018-12-07T12:11:40.824Z,0.40
2018-12-07T12:14:08.235Z,0.40
2018-12-07T12:16:35.684Z,1.00
2018-12-07T12:19:03.118Z,1.23
2018-12-07T12:21:30.511Z,0.70
2018-12-07T12:23:57.953Z,0.40
2018-12-07T12:26:25.367Z,1.63
2018-12-07T12:28:52.906Z,1.17
2018-12-07T12:31:20.361Z,1.10
2018-12-07T12:33:47.792Z,0.70
2018-12-07T12:36:17.262Z,1.47
2018-12-07T12:38:44.881Z,0.30
2018-12-07T12:41:12.328Z,2.23
2018-12-07T12:43:40.341Z,1.60
2018-12-07T12:46:07.755Z,1.40
2018-12-07T12:48:35.198Z,0.47
2018-12-07T12:51:02.627Z,0.60
2018-12-07T12:53:30.084Z,1.50
2018-12-07T12:55:57.523Z,1.43
2018-12-07T12:58:24.945Z,5.00
2018-12-07T13:00:52.413Z,1.70
2018-12-07T13:03:19.845Z,1.70
2018-12-07T13:05:47.293Z,2.70
2018-12-07T13:08:14.749Z,3.33
2018-12-07T13:10:42.196Z,2.00
2018-12-07T13:13:09.621Z,1.83
2018-12-07T13:15:37.023Z,4.57
2018-12-07T13:18:04.441Z,2.80
2018-12-07T13:20:31.863Z,0.70
2018-12-07T13:22:59.284Z,1.67
2018-12-07T13:25:26.677Z,2.93
2018-12-07T13:27:54.071Z,2.33
2018-12-07T13:30:21.466Z,3.87
2018-12-07T13:32:48.866Z,1.97
2018-12-07T13:35:16.248Z,4.33
2018-12-07T13:37:43.678Z,1.77
2018-12-07T13:40:11.394Z,3.27
2018-12-07T13:42:39.018Z,1.20
2018-12-07T13:45:07.453Z,2.30
2018-12-07T13:47:35.150Z,2.50
2018-12-07T13:50:08.973Z,4.00
2018-12-07T13:52:36.501Z,1.17
2018-12-07T13:55:04.734Z,2.83
2018-12-07T13:57:32.221Z,3.37
2018-12-07T13:59:59.713Z,1.73
2018-12-07T14:02:27.504Z,2.63
2018-12-07T14:04:55.302Z,3.07
2018-12-07T14:07:22.829Z,1.93
2018-12-07T14:09:50.587Z,4.83
2018-12-07T14:12:18.166Z,1.60
2018-12-07T14:14:45.869Z,1.67
2018-12-07T14:17:13.427Z,2.27
2018-12-07T14:19:40.939Z,1.80
2018-12-07T14:22:08.444Z,3.07
2018-12-07T14:24:35.962Z,2.83
2018-12-07T14:27:03.512Z,2.73
2018-12-07T14:29:31.272Z,2.07
2018-12-07T14:31:58.913Z,3.30
2018-12-07T14:34:26.490Z,4.17
2018-12-07T14:36:53.974Z,1.60
2018-12-07T14:39:21.443Z,2.03
2018-12-07T14:41:49.016Z,1.83
2018-12-07T14:44:17.638Z,1.80
2018-12-07T14:46:45.431Z,2.40
2018-12-07T14:49:12.879Z,1.67
2018-12-07T14:51:40.371Z,4.53
2018-12-07T14:54:07.902Z,3.90
2018-12-07T14:56:35.417Z,1.10
2018-12-07T14:59:03.254Z,3.63
2018-12-07T15:01:30.905Z,3.23
2018-12-07T15:03:58.615Z,3.27
2018-12-07T15:06:26.319Z,2.90
2018-12-07T15:08:53.812Z,3.27
2018-12-07T15:11:21.580Z,1.53
2018-12-07T15:13:49.097Z,3.00
2018-12-07T15:16:16.628Z,3.33
2018-12-07T15:18:44.177Z,1.80
2018-12-07T15:21:11.966Z,2.97
2018-12-07T15:23:39.538Z,2.07
2018-12-07T15:26:07.018Z,1.10
2018-12-07T15:28:34.698Z,2.30
2018-12-07T15:31:02.228Z,4.67
2018-12-07T15:33:29.948Z,6.40
2018-12-07T15:35:57.451Z,3.33
2018-12-07T15:38:25.300Z,1.50
2018-12-07T15:40:52.736Z,4.97
2018-12-07T15:43:20.137Z,1.73
2018-12-07T15:45:47.572Z,3.77
2018-12-07T15:48:15.147Z,3.53
2018-12-07T15:50:42.599Z,4.40
2018-12-07T15:53:10.168Z,3.80
2018-12-07T15:55:37.743Z,2.57
2018-12-07T15:58:05.418Z,10.10
2018-12-07T16:00:33.002Z,6.80
2018-12-07T16:03:00.582Z,7.30
2018-12-07T16:05:28.123Z,8.97
2018-12-07T16:07:55.635Z,8.20
2018-12-07T16:10:23.209Z,9.93
2018-12-07T16:12:50.895Z,9.67
2018-12-07T16:15:18.337Z,7.83
2018-12-07T16:17:45.804Z,8.93
2018-12-07T16:20:15.246Z,9.80
2018-12-07T16:22:43.078Z,13.23
2018-12-07T16:25:10.623Z,5.57
2018-12-07T16:27:38.111Z,7.27
2018-12-07T16:30:06.700Z,6.57
2018-12-07T16:32:34.290Z,4.87
2018-12-07T16:35:02.094Z,4.33
2018-12-07T16:37:29.682Z,4.17
2018-12-07T16:39:57.954Z,8.63
2018-12-07T16:42:25.607Z,5.97
2018-12-07T16:44:53.100Z,4.73
2018-12-07T16:47:20.579Z,10.13
2018-12-07T16:49:48.158Z,4.00
2018-12-07T16:52:15.646Z,5.43
2018-12-07T16:54:43.316Z,6.47
2018-12-07T16:57:10.897Z,4.73
2018-12-07T16:59:38.418Z,9.53
2018-12-07T17:02:05.965Z,8.83
2018-12-07T17:04:33.575Z,6.03
2018-12-07T17:07:01.244Z,6.47
2018-12-07T17:09:28.928Z,9.37
2018-12-07T17:11:56.633Z,3.83
2018-12-07T17:14:24.293Z,9.47
2018-12-07T17:16:51.934Z,10.47
2018-12-07T17:19:19.417Z,10.53
2018-12-07T17:21:47.125Z,12.90
2018-12-07T17:24:14.622Z,10.70
2018-12-07T17:26:42.126Z,11.17
2018-12-07T17:29:09.873Z,10.90
2018-12-07T17:31:37.360Z,9.23
2018-12-07T17:34:04.939Z,5.87
2018-12-07T17:36:32.528Z,4.23
2018-12-07T17:39:00.113Z,7.97
2018-12-07T17:41:27.595Z,7.47
2018-12-07T17:43:55.001Z,7.17
2018-12-07T17:46:22.685Z,3.57
2018-12-07T17:48:50.381Z,6.23
2018-12-07T17:51:17.874Z,6.07
2018-12-07T17:53:45.631Z,7.37
2018-12-07T17:56:13.203Z,8.00
2018-12-07T17:58:41.159Z,11.33
2018-12-07T18:01:08.644Z,6.87
2018-12-07T18:03:36.063Z,9.47
2018-12-07T18:06:03.544Z,9.40
2018-12-07T18:08:31.076Z,5.33
2018-12-07T18:10:58.950Z,8.23
2018-12-07T18:13:26.461Z,8.67
2018-12-07T18:15:53.993Z,8.77
2018-12-07T18:18:26.681Z,6.03
2018-12-07T18:20:54.142Z,12.17
2018-12-07T18:23:21.800Z,6.80
2018-12-07T18:25:49.402Z,5.83
2018-12-07T18:28:16.955Z,5.47
2018-12-07T18:30:44.545Z,6.23
2018-12-07T18:33:12.122Z,5.73
2018-12-07T18:35:39.919Z,11.40
2018-12-07T18:38:07.630Z,4.00
2018-12-07T18:40:35.188Z,4.43
2018-12-07T18:43:02.775Z,2.90
2018-12-07T18:45:30.360Z,4.00
2018-12-07T18:47:57.806Z,8.70
2018-12-07T18:50:25.424Z,6.33
2018-12-07T18:52:53.183Z,10.00
2018-12-07T18:55:20.856Z,6.90
2018-12-07T18:57:48.551Z,8.87
2018-12-07T19:00:16.335Z,7.17
2018-12-07T19:02:44.032Z,7.83
2018-12-07T19:05:11.579Z,13.37
2018-12-07T19:07:39.314Z,13.50
2018-12-07T19:10:07.224Z,13.93
2018-12-07T19:12:34.722Z,13.97
2018-12-07T19:15:02.384Z,6.33
2018-12-07T19:17:30.043Z,9.67
2018-12-07T19:19:57.781Z,6.27
2018-12-07T19:22:25.300Z,6.50
2018-12-07T19:24:52.869Z,8.87
2018-12-07T19:27:20.490Z,6.40
2018-12-07T19:29:48.353Z,10.00
2018-12-07T19:32:16.015Z,2.67
2018-12-07T19:34:43.557Z,3.33
2018-12-07T19:37:11.150Z,3.17
2018-12-07T19:39:38.839Z,3.13
2018-12-07T19:42:06.322Z,3.67
2018-12-07T19:44:33.880Z,6.77
2018-12-07T19:47:01.671Z,9.50
2018-12-07T19:49:29.520Z,12.47
2018-12-07T19:51:57.027Z,4.53
2018-12-07T19:54:24.619Z,4.07
2018-12-07T19:56:52.230Z,8.03
2018-12-07T19:59:19.775Z,4.50
2018-12-07T20:01:47.234Z,7.47
2018-12-07T20:04:14.901Z,5.13
2018-12-07T20:06:42.363Z,8.17
2018-12-07T20:09:10.021Z,7.20
2018-12-07T20:11:37.537Z,5.87
2018-12-07T20:14:05.026Z,6.53
2018-12-07T20:16:32.596Z,8.60
2018-12-07T20:19:00.129Z,5.40
2018-12-07T20:21:27.695Z,11.57
2018-12-07T20:23:55.359Z,9.63
2018-12-07T20:26:22.946Z,5.47
2018-12-07T20:28:50.485Z,7.67
2018-12-07T20:31:18.038Z,7.90
2018-12-07T20:33:45.734Z,9.40
2018-12-07T20:36:13.277Z,8.57
2018-12-07T20:38:41.065Z,6.63
2018-12-07T20:41:08.679Z,8.77
2018-12-07T20:43:36.394Z,12.50
2018-12-07T20:46:04.156Z,7.77
2018-12-07T20:48:31.615Z,7.83
2018-12-07T20:50:59.287Z,9.50
2018-12-07T20:53:27.729Z,4.60
2018-12-07T20:55:56.449Z,14.47
2018-12-07T20:58:24.065Z,5.20
2018-12-07T21:00:59.288Z,9.73
2018-12-07T21:03:28.492Z,7.97
2018-12-07T21:06:28.381Z,10.33
2018-12-07T21:09:21.863Z,12.50
2018-12-07T21:11:52.251Z,8.50
2018-12-07T21:14:26.428Z,6.70
2018-12-07T21:17:15.281Z,11.13
2018-12-07T21:19:44.822Z,9.70
2018-12-07T21:22:12.340Z,10.43
2018-12-07T21:24:40.159Z,8.03
2018-12-07T21:27:08.261Z,12.43
2018-12-07T21:29:37.094Z,7.77
2018-12-07T21:32:06.924Z,7.03
2018-12-07T21:34:40.486Z,8.63
2018-12-07T21:37:08.398Z,8.33
2018-12-07T21:39:39.170Z,8.37
2018-12-07T21:42:07.695Z,8.97
2018-12-07T21:44:35.172Z,9.70
2018-12-07T21:47:03.629Z,13.27
2018-12-07T21:49:34.427Z,6.13
2018-12-07T21:52:32.653Z,12.23
2018-12-07T21:55:00.977Z,8.27
2018-12-07T21:57:29.869Z,8.50
2018-12-07T21:59:57.849Z,3.63
2018-12-07T22:02:25.950Z,7.20
2018-12-07T22:04:53.789Z,5.30
2018-12-07T22:07:21.971Z,8.87
2018-12-07T22:09:50.915Z,6.03
2018-12-07T22:12:19.037Z,7.57
2018-12-07T22:14:46.520Z,6.70
2018-12-07T22:17:13.963Z,5.30
2018-12-07T22:19:41.447Z,8.53
2018-12-07T22:22:10.584Z,5.33
2018-12-07T22:24:38.718Z,8.77
2018-12-07T22:27:07.087Z,7.17
2018-12-07T22:29:35.906Z,11.77
2018-12-07T22:32:03.844Z,9.43
2018-12-07T22:34:31.415Z,10.53
2018-12-07T22:36:59.045Z,7.77
2018-12-07T22:39:26.719Z,7.20
2018-12-07T22:41:54.530Z,11.20
2018-12-07T22:44:22.741Z,7.40
2018-12-07T22:46:50.213Z,14.40
2018-12-07T22:49:17.732Z,4.53
2018-12-07T22:51:45.172Z,7.73
2018-12-07T22:54:12.645Z,6.10
2018-12-07T22:56:40.243Z,12.40
2018-12-07T22:59:07.668Z,9.03
2018-12-07T23:01:35.106Z,13.70
2018-12-07T23:04:02.540Z,7.10
2018-12-07T23:06:29.944Z,8.23
2018-12-07T23:08:57.491Z,4.77
2018-12-07T23:11:24.963Z,4.47
2018-12-07T23:13:52.358Z,7.77
2018-12-07T23:16:19.796Z,7.07
2018-12-07T23:18:47.281Z,6.10
2018-12-07T23:21:15.319Z,8.43
2018-12-07T23:23:42.784Z,9.03
2018-12-07T23:26:10.292Z,7.70
2018-12-07T23:28:37.818Z,10.77
2018-12-07T23:31:05.234Z,7.30
2018-12-07T23:33:32.655Z,6.57
2018-12-07T23:36:00.078Z,12.07
2018-12-07T23:38:27.496Z,7.07
2018-12-07T23:40:54.918Z,11.83
2018-12-07T23:43:22.331Z,11.77
2018-12-07T23:45:49.734Z,7.00
2018-12-07T23:48:17.151Z,9.60
2018-12-07T23:50:44.677Z,12.23
2018-12-07T23:53:12.078Z,6.53
2018-12-07T23:55:39.804Z,6.93
2018-12-07T23:58:07.277Z,15.37
